Time;durP1;ratioP1;P1;durP2;ratioP2;P2;SDS_P1;SDS_P2;PMS_P1;PMS_P2;Temp;Humidity;BMP_temperature;BMP_pressure;BME280_temperature;BME280_humidity;BME280_pressure;Samples;Min_cycle;Max_cycle;Signal;HPM_P1;HPM_P2
2023/06/21 00:00:15;;;;;;;0.50;0.20;;;;;;;20.06;100.00;99965.56;5024563;28;20475;-49
2023/06/21 00:02:42;;;;;;;0.50;0.20;;;;;;;20.23;100.00;99975.09;5025753;28;20968;-49
2023/06/21 00:05:09;;;;;;;0.50;0.20;;;;;;;20.33;100.00;99976.16;5017291;28;20469;-50
2023/06/21 00:07:38;;;;;;;0.50;0.20;;;;;;;20.43;100.00;99972.81;5020848;28;20475;-50
2023/06/21 00:10:07;;;;;;;0.50;0.20;;;;;;;20.37;100.00;99966.84;5030729;28;20472;-49
2023/06/21 00:12:35;;;;;;;0.50;0.30;;;;;;;20.45;100.00;99969.03;5014806;28;20532;-49
2023/06/21 00:15:02;;;;;;;0.50;0.20;;;;;;;20.36;100.00;99956.16;5029154;28;20880;-49
2023/06/21 00:17:29;;;;;;;0.50;0.20;;;;;;;20.19;100.00;99967.34;5025808;28;20981;-49
2023/06/21 00:19:56;;;;;;;0.50;0.20;;;;;;;20.20;100.00;99972.63;5023258;28;20468;-49
2023/06/21 00:22:23;;;;;;;0.50;0.20;;;;;;;20.26;100.00;99974.00;5032429;28;20471;-49
2023/06/21 00:24:49;;;;;;;0.50;0.20;;;;;;;20.30;100.00;99976.41;5015961;28;20468;-49
2023/06/21 00:27:19;;;;;;;0.50;0.20;;;;;;;20.36;100.00;99980.47;5019718;28;20478;-50
2023/06/21 00:29:45;;;;;;;0.50;0.20;;;;;;;20.33;100.00;99989.66;5022090;28;20456;-49
2023/06/21 00:32:12;;;;;;;0.50;0.20;;;;;;;20.21;100.00;99990.56;5024594;28;20870;-49
2023/06/21 00:34:38;;;;;;;0.50;0.20;;;;;;;20.13;100.00;99987.53;5021744;28;20511;-49
2023/06/21 00:37:05;;;;;;;0.50;0.20;;;;;;;20.19;100.00;99997.06;5023432;28;20497;-49
2023/06/21 00:39:32;;;;;;;0.50;0.30;;;;;;;20.18;100.00;99996.19;5032766;28;20470;-50
2023/06/21 00:41:58;;;;;;;0.50;0.20;;;;;;;20.26;100.00;100001.00;5027099;28;20474;-49
2023/06/21 00:44:25;;;;;;;0.50;0.20;;;;;;;20.23;100.00;100003.94;5024533;28;20533;-49
2023/06/21 00:46:52;;;;;;;0.50;0.20;;;;;;;20.17;100.00;100005.25;5027399;28;20514;-49
2023/06/21 00:49:18;;;;;;;0.50;0.20;;;;;;;20.25;100.00;100018.19;5029699;28;21126;-48
2023/06/21 00:51:46;;;;;;;0.50;0.20;;;;;;;20.36;100.00;100019.13;5024252;28;20467;-48
2023/06/21 00:54:16;;;;;;;0.50;0.20;;;;;;;20.15;100.00;100026.13;5012424;28;20831;-49
2023/06/21 00:56:43;;;;;;;0.50;0.20;;;;;;;20.09;100.00;100030.09;5029820;28;20635;-49
2023/06/21 00:59:10;;;;;;;0.50;0.20;;;;;;;20.03;100.00;100029.69;5026368;28;20487;-48
2023/06/21 01:01:37;;;;;;;0.50;0.30;;;;;;;19.80;100.00;100023.22;5029558;28;20551;-49
2023/06/21 01:04:08;;;;;;;0.50;0.20;;;;;;;19.89;100.00;100022.59;5016647;28;20475;-49
2023/06/21 01:06:52;;;;;;;0.50;0.20;;;;;;;19.68;100.00;100024.94;5029340;28;20988;-48
2023/06/21 01:09:56;;;;;;;0.50;0.20;;;;;;;19.59;100.00;100027.44;5017443;28;21032;-48
2023/06/21 01:13:04;;;;;;;0.50;0.20;;;;;;;19.64;100.00;100028.84;5013549;28;20463;-48
2023/06/21 01:15:39;;;;;;;0.50;0.20;;;;;;;19.60;100.00;100034.53;4989810;28;20507;-48
2023/06/21 01:18:06;;;;;;;3.07;2.77;;;;;;;19.49;100.00;100032.59;5024485;28;21004;-48
2023/06/21 01:20:35;;;;;;;0.50;0.20;;;;;;;19.46;100.00;100025.59;5027123;28;20502;-48
2023/06/21 01:23:31;;;;;;;0.50;0.20;;;;;;;19.47;100.00;100023.75;5028379;28;20468;-48
2023/06/21 01:26:17;;;;;;;0.50;0.20;;;;;;;19.45;100.00;100018.44;5018009;28;20492;-48
2023/06/21 01:29:04;;;;;;;0.50;0.20;;;;;;;19.35;100.00;100030.84;5027711;28;20857;-49
2023/06/21 01:31:30;;;;;;;0.50;0.20;;;;;;;19.50;100.00;100035.19;5019051;28;20517;-49
2023/06/21 01:33:59;;;;;;;0.50;0.20;;;;;;;19.49;100.00;100038.84;5026151;28;20546;-48
2023/06/21 01:36:26;;;;;;;0.50;0.20;;;;;;;19.37;100.00;100030.75;5028304;28;20582;-48
2023/06/21 01:38:56;;;;;;;0.50;0.30;;;;;;;19.48;100.00;100030.88;5024702;28;20487;-48
2023/06/21 01:41:25;;;;;;;0.50;0.20;;;;;;;19.49;100.00;100033.44;5024952;28;20499;-49
2023/06/21 01:43:56;;;;;;;0.50;0.20;;;;;;;19.33;100.00;100032.78;5026563;28;21019;-48
2023/06/21 01:46:25;;;;;;;0.50;0.20;;;;;;;19.36;100.00;100027.19;5026016;28;20509;-49
2023/06/21 01:48:52;;;;;;;0.50;0.20;;;;;;;19.31;100.00;100017.66;5025946;28;20551;-49
2023/06/21 01:51:21;;;;;;;0.50;0.20;;;;;;;19.23;100.00;100027.16;5024724;28;20463;-49
2023/06/21 01:53:48;;;;;;;0.50;0.20;;;;;;;19.27;100.00;100032.34;5026309;28;20850;-50
2023/06/21 01:56:17;;;;;;;0.50;0.20;;;;;;;19.18;100.00;100036.50;5024054;28;20506;-48
2023/06/21 01:58:46;;;;;;;0.50;0.20;;;;;;;19.19;100.00;100028.34;5022655;28;21001;-49
2023/06/21 02:01:14;;;;;;;0.50;0.20;;;;;;;19.11;100.00;100027.13;5025018;28;20554;-49
2023/06/21 02:03:43;;;;;;;0.50;0.30;;;;;;;19.11;100.00;100025.31;5014321;28;20469;-50
2023/06/21 02:06:11;;;;;;;0.50;0.20;;;;;;;19.09;100.00;100029.94;5030332;28;20463;-50
2023/06/21 02:08:38;;;;;;;0.50;0.20;;;;;;;19.18;100.00;100023.03;5020521;28;20827;-49
2023/06/21 02:11:05;;;;;;;0.50;0.20;;;;;;;19.15;100.00;100023.25;5027427;28;20467;-49
2023/06/21 02:13:32;;;;;;;0.50;0.20;;;;;;;18.98;100.00;100026.25;5026587;28;20554;-49
2023/06/21 02:15:59;;;;;;;0.50;0.20;;;;;;;19.09;100.00;100029.94;5026410;28;20624;-49
2023/06/21 02:18:26;;;;;;;0.50;0.20;;;;;;;19.19;100.00;100035.56;5023180;28;20499;-49
2023/06/21 02:20:53;;;;;;;0.60;0.40;;;;;;;19.01;100.00;100032.28;5025668;28;20497;-49
2023/06/21 02:23:19;;;;;;;0.50;0.20;;;;;;;18.99;100.00;100042.28;5028200;28;20573;-49
2023/06/21 02:25:46;;;;;;;0.50;0.20;;;;;;;19.03;100.00;100045.63;5019115;28;20468;-50
2023/06/21 02:28:12;;;;;;;0.93;0.93;;;;;;;18.98;100.00;100058.56;5026953;28;20480;-49
2023/06/21 02:30:38;;;;;;;0.50;0.30;;;;;;;18.90;100.00;100061.75;5021809;28;20467;-49
2023/06/21 02:33:05;;;;;;;0.50;0.20;;;;;;;18.80;100.00;100074.13;5024707;28;21027;-49
2023/06/21 02:35:31;;;;;;;0.50;0.20;;;;;;;18.80;100.00;100088.47;5029279;28;20495;-49
2023/06/21 02:37:58;;;;;;;0.80;0.80;;;;;;;18.70;100.00;100090.00;5022533;28;20492;-49
2023/06/21 02:40:24;;;;;;;0.50;0.20;;;;;;;18.68;100.00;100094.66;5027136;28;20538;-49
2023/06/21 02:42:52;;;;;;;0.50;0.20;;;;;;;18.74;100.00;100085.28;5024012;28;20468;-48
2023/06/21 02:45:19;;;;;;;0.50;0.20;;;;;;;18.90;100.00;100099.47;5025625;28;20471;-48
2023/06/21 02:47:45;;;;;;;0.50;0.20;;;;;;;18.84;100.00;100099.88;5027789;28;20484;-50
2023/06/21 02:50:14;;;;;;;0.50;0.20;;;;;;;18.67;100.00;100110.91;5016996;28;20472;-49
2023/06/21 02:52:41;;;;;;;0.50;0.20;;;;;;;19.10;100.00;100111.63;5025302;28;20521;-49
2023/06/21 02:55:08;;;;;;;0.50;0.20;;;;;;;18.89;100.00;100112.06;5025695;28;20464;-48
2023/06/21 02:57:34;;;;;;;0.50;0.20;;;;;;;18.98;100.00;100107.06;5031295;28;20859;-49
2023/06/21 03:00:01;;;;;;;0.50;0.20;;;;;;;19.12;100.00;100110.56;5023600;28;20969;-49
2023/06/21 03:02:33;;;;;;;0.50;0.20;;;;;;;19.19;100.00;100116.41;5025076;28;20475;-48
2023/06/21 03:05:00;;;;;;;1.33;1.23;;;;;;;19.15;100.00;100113.03;5025621;28;20549;-48
2023/06/21 03:07:27;;;;;;;0.50;0.20;;;;;;;19.16;100.00;100119.28;5029876;28;21039;-49
2023/06/21 03:09:54;;;;;;;0.50;0.20;;;;;;;19.06;100.00;100115.50;5026918;28;20463;-49
2023/06/21 03:12:21;;;;;;;0.50;0.20;;;;;;;19.02;100.00;100119.34;5028890;28;20468;-49
2023/06/21 03:14:47;;;;;;;0.50;0.20;;;;;;;19.09;100.00;100118.00;5029697;28;20492;-49
2023/06/21 03:17:13;;;;;;;0.50;0.20;;;;;;;19.15;100.00;100123.81;5027443;28;20961;-49
2023/06/21 03:19:40;;;;;;;0.50;0.20;;;;;;;19.09;100.00;100118.84;5028236;28;20468;-48
2023/06/21 03:22:06;;;;;;;2.50;1.23;;;;;;;19.03;100.00;100121.06;5034012;28;20900;-50
2023/06/21 03:24:33;;;;;;;0.50;0.20;;;;;;;19.19;100.00;100114.59;5029907;28;21041;-48
2023/06/21 03:27:00;;;;;;;0.50;0.20;;;;;;;19.17;100.00;100118.31;5025293;28;20463;-49
2023/06/21 03:29:26;;;;;;;0.50;0.20;;;;;;;19.19;100.00;100119.13;5025348;28;21007;-49
2023/06/21 03:31:53;;;;;;;0.50;0.20;;;;;;;19.41;100.00;100110.41;5031924;28;20467;-49
2023/06/21 03:34:19;;;;;;;0.50;0.20;;;;;;;19.40;100.00;100117.66;5028470;28;20503;-49
2023/06/21 03:36:46;;;;;;;0.50;0.20;;;;;;;19.48;100.00;100128.78;5031082;28;20515;-50
2023/06/21 03:39:12;;;;;;;0.50;0.20;;;;;;;19.55;100.00;100123.84;5028022;28;20541;-49
2023/06/21 03:41:39;;;;;;;0.50;0.20;;;;;;;19.69;100.00;100131.88;5026331;28;20468;-49
2023/06/21 03:44:05;;;;;;;0.50;0.20;;;;;;;19.60;100.00;100143.31;5025025;28;20507;-49
2023/06/21 03:46:32;;;;;;;0.50;0.20;;;;;;;19.65;100.00;100156.47;5028989;28;20515;-49
2023/06/21 03:48:58;;;;;;;0.50;0.20;;;;;;;19.58;100.00;100153.31;5030180;28;21005;-50
2023/06/21 03:51:25;;;;;;;2.97;2.77;;;;;;;19.61;100.00;100161.22;5027774;28;20463;-48
2023/06/21 03:53:51;;;;;;;0.50;0.20;;;;;;;19.68;100.00;100164.34;5027922;28;20818;-50
2023/06/21 03:56:18;;;;;;;0.50;0.20;;;;;;;19.53;100.00;100164.38;5033973;28;20891;-49
2023/06/21 03:58:44;;;;;;;0.50;0.20;;;;;;;19.56;100.00;100159.78;5026097;28;20587;-49
2023/06/21 04:01:11;;;;;;;1.07;0.90;;;;;;;19.39;100.00;100155.50;5025808;28;20914;-49
2023/06/21 04:03:37;;;;;;;0.50;0.30;;;;;;;19.58;100.00;100156.00;5017358;28;20526;-49
2023/06/21 04:06:04;;;;;;;0.50;0.20;;;;;;;19.40;100.00;100155.38;5031462;28;20474;-49
2023/06/21 04:08:30;;;;;;;0.50;0.20;;;;;;;19.03;100.00;100158.78;5029094;28;20908;-49
2023/06/21 04:10:57;;;;;;;0.50;0.20;;;;;;;19.06;100.00;100162.16;5030324;28;20463;-49
2023/06/21 04:13:23;;;;;;;0.90;0.90;;;;;;;19.15;100.00;100153.47;5026189;28;20474;-49
2023/06/21 04:15:50;;;;;;;0.50;0.20;;;;;;;19.21;100.00;100153.06;5029269;28;20464;-49
2023/06/21 04:18:16;;;;;;;0.50;0.20;;;;;;;19.26;100.00;100149.19;5023709;28;20496;-49
2023/06/21 04:20:43;;;;;;;0.50;0.20;;;;;;;19.61;100.00;100147.72;5028739;28;20467;-50
2023/06/21 04:23:09;;;;;;;0.50;0.20;;;;;;;19.40;100.00;100135.66;5030315;28;20953;-50
2023/06/21 04:25:36;;;;;;;0.50;0.20;;;;;;;19.65;100.00;100151.94;5020925;28;20491;-49
2023/06/21 04:28:02;;;;;;;0.50;0.20;;;;;;;19.95;100.00;100159.75;5028619;28;20579;-49
2023/06/21 04:30:33;;;;;;;0.50;0.20;;;;;;;20.14;100.00;100170.09;5025741;28;20463;-49
2023/06/21 04:33:00;;;;;;;0.50;0.20;;;;;;;20.06;100.00;100177.88;5026531;28;20502;-49
2023/06/21 04:35:27;;;;;;;0.50;0.20;;;;;;;20.37;100.00;100193.66;5031812;28;20558;-49
2023/06/21 04:37:54;;;;;;;0.50;0.20;;;;;;;20.49;100.00;100189.25;5024111;28;20546;-49
2023/06/21 04:40:21;;;;;;;0.50;0.20;;;;;;;20.35;100.00;100194.75;5030064;28;20464;-49
2023/06/21 04:42:54;;;;;;;0.50;0.20;;;;;;;20.42;100.00;100193.34;5017298;28;20469;-50
2023/06/21 04:45:22;;;;;;;0.50;0.20;;;;;;;20.30;100.00;100189.69;5027579;28;20964;-49
2023/06/21 04:47:49;;;;;;;0.50;0.20;;;;;;;20.25;100.00;100197.22;5029420;28;20514;-49
2023/06/21 04:50:16;;;;;;;0.50;0.20;;;;;;;20.28;100.00;100193.44;5026809;28;20468;-49
2023/06/21 04:52:48;;;;;;;0.50;0.20;;;;;;;20.21;100.00;100193.00;5010879;28;20970;-50
2023/06/21 04:55:18;;;;;;;1.00;1.00;;;;;;;20.08;100.00;100189.44;5027816;28;21038;-49
2023/06/21 04:57:46;;;;;;;0.50;0.20;;;;;;;20.27;100.00;100187.16;5032511;28;21035;-49
2023/06/21 05:00:14;;;;;;;0.50;0.20;;;;;;;20.53;100.00;100195.28;5026014;28;20467;-49
2023/06/21 05:02:40;;;;;;;0.50;0.20;;;;;;;20.52;100.00;100197.13;5004451;28;20547;-49
2023/06/21 05:05:07;;;;;;;0.50;0.20;;;;;;;20.61;100.00;100195.63;5023482;28;20468;-48
2023/06/21 05:07:37;;;;;;;5.23;2.77;;;;;;;20.78;100.00;100184.44;5027814;28;21070;-49
2023/06/21 05:10:06;;;;;;;0.50;0.20;;;;;;;20.92;100.00;100197.81;5024322;28;20506;-50
2023/06/21 05:12:32;;;;;;;0.50;0.20;;;;;;;20.85;100.00;100201.97;5027042;28;20561;-48
2023/06/21 05:14:59;;;;;;;0.50;0.20;;;;;;;20.92;100.00;100200.53;5028455;28;20511;-50
2023/06/21 05:17:25;;;;;;;0.50;0.20;;;;;;;20.89;100.00;100192.66;5025873;28;20508;-49
2023/06/21 05:19:52;;;;;;;0.50;0.20;;;;;;;21.11;100.00;100196.50;5027554;28;20497;-49
2023/06/21 05:22:18;;;;;;;0.50;0.20;;;;;;;21.25;100.00;100201.78;5024751;28;20467;-49
2023/06/21 05:24:45;;;;;;;0.50;0.20;;;;;;;21.04;100.00;100200.63;5023991;28;20464;-48
2023/06/21 05:27:11;;;;;;;0.50;0.20;;;;;;;21.03;100.00;100201.59;5030415;28;20471;-49
2023/06/21 05:29:38;;;;;;;0.50;0.20;;;;;;;21.30;100.00;100196.88;5023357;28;20475;-49
2023/06/21 05:32:05;;;;;;;0.50;0.20;;;;;;;21.18;100.00;100198.63;5029887;28;20467;-49
2023/06/21 05:34:31;;;;;;;0.50;0.20;;;;;;;21.29;100.00;100205.97;5021920;28;20556;-50
2023/06/21 05:36:57;;;;;;;0.50;0.20;;;;;;;21.20;100.00;100209.31;5027368;28;20901;-48
2023/06/21 05:39:24;;;;;;;0.50;0.20;;;;;;;21.36;100.00;100209.94;5025941;28;21206;-49
2023/06/21 05:41:50;;;;;;;0.50;0.20;;;;;;;21.23;100.00;100219.91;5023291;28;20465;-49
2023/06/21 05:44:17;;;;;;;0.50;0.20;;;;;;;21.08;100.00;100221.88;5022875;28;20472;-49
2023/06/21 05:46:43;;;;;;;0.50;0.20;;;;;;;21.10;100.00;100229.88;5027211;28;20550;-49
2023/06/21 05:49:10;;;;;;;0.50;0.20;;;;;;;21.13;100.00;100235.09;5023455;28;20488;-48
2023/06/21 05:51:36;;;;;;;0.50;0.20;;;;;;;21.02;100.00;100243.13;5026139;28;20474;-49
2023/06/21 05:54:03;;;;;;;0.50;0.20;;;;;;;21.02;100.00;100252.09;5027966;28;20464;-48
2023/06/21 05:56:31;;;;;;;0.50;0.20;;;;;;;20.86;100.00;100260.44;5024500;28;20857;-48
2023/06/21 05:58:58;;;;;;;0.50;0.30;;;;;;;20.80;100.00;100257.28;5026715;28;20990;-49
2023/06/21 06:01:24;;;;;;;0.50;0.20;;;;;;;20.97;100.00;100262.38;5024056;28;20548;-49
2023/06/21 06:03:51;;;;;;;0.50;0.20;;;;;;;21.07;100.00;100254.44;5012052;28;20473;-49
2023/06/21 06:06:17;;;;;;;0.50;0.20;;;;;;;20.99;100.00;100245.06;5030571;28;20463;-49
2023/06/21 06:08:45;;;;;;;0.50;0.20;;;;;;;21.10;100.00;100240.69;5020775;28;20571;-49
2023/06/21 06:11:11;;;;;;;0.50;0.20;;;;;;;21.18;100.00;100241.00;5016985;28;20842;-49
2023/06/21 06:13:38;;;;;;;0.50;0.20;;;;;;;21.26;100.00;100249.47;5026640;28;20467;-48
2023/06/21 06:16:05;;;;;;;0.50;0.20;;;;;;;21.15;100.00;100246.66;5026378;28;20482;-49
2023/06/21 06:18:32;;;;;;;0.50;0.20;;;;;;;21.12;100.00;100250.44;5026191;28;20545;-49
2023/06/21 06:20:58;;;;;;;0.50;0.20;;;;;;;21.21;100.00;100249.75;5024811;28;20494;-49
2023/06/21 06:23:24;;;;;;;0.50;0.20;;;;;;;21.12;100.00;100255.00;5025190;28;20473;-49
2023/06/21 06:25:51;;;;;;;0.50;0.20;;;;;;;21.19;100.00;100257.13;5018382;28;20472;-49
2023/06/21 06:28:19;;;;;;;0.50;0.20;;;;;;;21.22;100.00;100261.44;5027768;28;20992;-49
2023/06/21 06:30:45;;;;;;;0.50;0.20;;;;;;;21.28;100.00;100275.41;5024236;28;20960;-50
2023/06/21 06:33:12;;;;;;;0.50;0.20;;;;;;;21.55;100.00;100280.63;5009890;28;20550;-49
2023/06/21 06:35:38;;;;;;;0.50;0.20;;;;;;;21.81;100.00;100285.94;5023464;28;20474;-50
2023/06/21 06:38:05;;;;;;;0.50;0.20;;;;;;;21.59;100.00;100289.38;5028414;28;20500;-49
2023/06/21 06:40:33;;;;;;;0.50;0.30;;;;;;;21.63;100.00;100300.81;5032954;28;20469;-48
2023/06/21 06:43:00;;;;;;;0.50;0.20;;;;;;;21.73;100.00;100301.88;5021381;28;20487;-49
2023/06/21 06:45:26;;;;;;;0.50;0.30;;;;;;;21.57;100.00;100310.28;5029640;28;20867;-49
2023/06/21 06:47:53;;;;;;;0.50;0.30;;;;;;;21.64;100.00;100313.38;5032673;28;20487;-49
2023/06/21 06:50:19;;;;;;;0.50;0.20;;;;;;;21.68;100.00;100315.75;5028572;28;20492;-49
2023/06/21 06:52:48;;;;;;;0.50;0.20;;;;;;;21.62;100.00;100313.50;5031462;28;20855;-50
2023/06/21 06:55:14;;;;;;;0.50;0.20;;;;;;;21.56;100.00;100304.00;5030288;28;20805;-49
2023/06/21 06:57:42;;;;;;;0.50;0.20;;;;;;;21.74;100.00;100301.75;5032657;28;20499;-49
2023/06/21 07:00:25;;;;;;;0.50;0.20;;;;;;;22.05;100.00;100300.34;5013906;28;20467;-49
2023/06/21 07:02:56;;;;;;;0.50;0.20;;;;;;;21.90;100.00;100287.94;5023098;28;20522;-50
2023/06/21 07:05:23;;;;;;;0.50;0.20;;;;;;;22.20;100.00;100284.75;5020278;28;20495;-49
2023/06/21 07:07:50;;;;;;;0.50;0.20;;;;;;;22.70;99.10;100278.09;5029080;28;20492;-49
2023/06/21 07:10:17;;;;;;;0.50;0.20;;;;;;;22.45;100.00;100300.84;5024604;28;20463;-49
2023/06/21 07:12:46;;;;;;;0.50;0.30;;;;;;;22.50;100.00;100296.94;5027400;28;21015;-50
2023/06/21 07:15:12;;;;;;;0.50;0.20;;;;;;;22.59;100.00;100310.59;5030843;28;20475;-49
2023/06/21 07:17:38;;;;;;;0.50;0.20;;;;;;;22.59;100.00;100309.75;5027682;28;20491;-49
2023/06/21 07:20:08;;;;;;;0.50;0.20;;;;;;;22.72;100.00;100310.50;5029484;28;20495;-49
2023/06/21 07:22:35;;;;;;;0.50;0.30;;;;;;;23.12;100.00;100304.66;5025063;28;20471;-50
2023/06/21 07:25:01;;;;;;;0.50;0.30;;;;;;;22.95;99.14;100317.72;5025522;28;20468;-49
2023/06/21 07:27:29;;;;;;;0.50;0.30;;;;;;;23.56;96.10;100306.44;5027661;28;20963;-48
2023/06/21 07:29:55;;;;;;;0.50;0.30;;;;;;;23.02;97.95;100304.53;5025368;28;20464;-49
2023/06/21 07:32:22;;;;;;;0.60;0.30;;;;;;;23.28;98.26;100306.00;5018584;28;20496;-49
2023/06/21 07:34:57;;;;;;;0.50;0.23;;;;;;;23.49;96.83;100307.97;5026515;28;20462;-49
2023/06/21 07:37:24;;;;;;;0.50;0.20;;;;;;;23.57;97.74;100305.47;5030831;28;20488;-49
2023/06/21 07:39:50;;;;;;;0.50;0.20;;;;;;;24.08;93.38;100303.00;5030425;28;20530;-49
2023/06/21 07:42:22;;;;;;;0.50;0.30;;;;;;;24.03;91.73;100296.25;5021347;28;20494;-49
2023/06/21 07:44:50;;;;;;;1.17;1.07;;;;;;;23.99;94.12;100294.78;5030232;28;20467;-50
2023/06/21 07:47:17;;;;;;;0.50;0.20;;;;;;;24.19;92.09;100294.81;5028251;28;20472;-49
2023/06/21 07:49:44;;;;;;;0.50;0.20;;;;;;;24.15;93.74;100290.63;5030822;28;20453;-50
2023/06/21 07:52:11;;;;;;;0.50;0.40;;;;;;;24.08;94.36;100291.28;5026830;28;20507;-49
2023/06/21 07:54:38;;;;;;;0.50;0.20;;;;;;;24.44;93.69;100298.16;5029784;28;20474;-50
2023/06/21 07:57:05;;;;;;;0.50;0.30;;;;;;;24.43;91.17;100289.16;5024345;28;20447;-49
2023/06/21 07:59:32;;;;;;;0.50;0.23;;;;;;;24.24;91.81;100286.25;5028907;28;20517;-49
2023/06/21 08:01:58;;;;;;;1.90;1.80;;;;;;;24.94;90.28;100290.16;5029473;28;20464;-49
2023/06/21 08:04:25;;;;;;;0.50;0.30;;;;;;;24.71;92.63;100292.19;5020884;28;20554;-48
2023/06/21 08:06:51;;;;;;;0.50;0.20;;;;;;;24.54;91.54;100287.38;5028591;28;20464;-49
2023/06/21 08:09:18;;;;;;;0.50;0.27;;;;;;;24.77;91.14;100288.94;5026088;28;20487;-49
2023/06/21 08:11:44;;;;;;;0.50;0.30;;;;;;;25.05;90.45;100284.66;5028026;28;20486;-49
2023/06/21 08:14:11;;;;;;;0.50;0.30;;;;;;;25.68;86.94;100279.84;5018714;28;20478;-49
2023/06/21 08:16:38;;;;;;;0.50;0.30;;;;;;;26.10;85.00;100279.63;5024174;28;20479;-49
2023/06/21 08:19:04;;;;;;;0.50;0.30;;;;;;;26.21;84.15;100277.63;5032708;28;20474;-49
2023/06/21 08:21:31;;;;;;;0.50;0.30;;;;;;;26.46;83.33;100286.22;5022729;28;20474;-49
2023/06/21 08:23:57;;;;;;;0.50;0.30;;;;;;;26.43;84.86;100281.03;5029563;28;20438;-51
2023/06/21 08:26:24;;;;;;;0.50;0.30;;;;;;;26.09;83.28;100280.63;5020668;28;20914;-49
2023/06/21 08:28:50;;;;;;;0.50;0.30;;;;;;;26.41;83.75;100280.34;5029551;28;20829;-49
2023/06/21 08:31:17;;;;;;;0.50;0.40;;;;;;;26.70;83.34;100283.00;5026276;28;20442;-49
2023/06/21 08:33:43;;;;;;;0.50;0.30;;;;;;;27.38;81.39;100279.03;5028317;28;20445;-50
2023/06/21 08:36:11;;;;;;;0.50;0.30;;;;;;;27.52;77.75;100276.78;5033030;28;20448;-50
2023/06/21 08:38:38;;;;;;;0.50;0.30;;;;;;;27.76;75.52;100281.72;5027014;28;21024;-52
2023/06/21 08:41:04;;;;;;;0.50;0.30;;;;;;;27.55;78.96;100282.84;5053417;22;20524;-51
2023/06/21 08:43:31;;;;;;;0.50;0.30;;;;;;;27.55;77.12;100274.63;5039949;28;20971;-51
2023/06/21 08:45:58;;;;;;;0.50;0.30;;;;;;;27.61;73.73;100284.94;5045182;28;20558;-51
2023/06/21 08:48:29;;;;;;;0.50;0.30;;;;;;;28.21;74.61;100289.84;5052224;28;20467;-51
2023/06/21 08:50:57;;;;;;;0.50;0.30;;;;;;;27.80;73.98;100300.38;5044143;28;20453;-51
2023/06/21 08:53:41;;;;;;;0.50;0.30;;;;;;;27.97;72.45;100313.22;5049399;28;20865;-51
2023/06/21 08:56:11;;;;;;;0.50;0.30;;;;;;;27.44;71.89;100310.34;5051993;28;21013;-51
2023/06/21 08:58:59;;;;;;;0.50;0.30;;;;;;;27.79;74.06;100293.19;5044569;28;21006;-51
2023/06/21 09:01:32;;;;;;;0.50;0.30;;;;;;;28.16;73.54;100309.44;5045313;28;20503;-50
2023/06/21 09:04:03;;;;;;;0.50;0.30;;;;;;;28.65;71.29;100318.13;5029695;28;20477;-50
2023/06/21 09:06:31;;;;;;;0.50;0.30;;;;;;;28.38;68.89;100316.34;5047801;28;20495;-51
2023/06/21 09:08:57;;;;;;;0.50;0.30;;;;;;;28.39;68.99;100328.16;5042540;28;20438;-51
2023/06/21 09:11:24;;;;;;;0.50;0.30;;;;;;;28.71;67.59;100320.19;5044082;28;20462;-51
2023/06/21 09:13:51;;;;;;;0.50;0.30;;;;;;;28.61;66.94;100330.38;5045501;28;20944;-51
2023/06/21 09:16:19;;;;;;;2.70;2.50;;;;;;;29.13;65.43;100323.06;5044664;28;20911;-51
2023/06/21 09:18:46;;;;;;;0.50;0.30;;;;;;;29.64;62.22;100326.75;5046612;28;20911;-52
2023/06/21 09:21:13;;;;;;;0.50;0.30;;;;;;;29.19;63.19;100322.44;5041275;28;20523;-51
2023/06/21 09:23:40;;;;;;;0.50;0.30;;;;;;;29.07;61.81;100322.88;5048953;28;20561;-51
2023/06/21 09:26:08;;;;;;;0.50;0.30;;;;;;;29.07;60.93;100320.13;5037811;28;20550;-51
2023/06/21 09:28:35;;;;;;;0.50;0.30;;;;;;;29.34;59.50;100321.81;5047318;28;20429;-51
2023/06/21 09:31:02;;;;;;;0.50;0.30;;;;;;;29.45;60.90;100324.25;5041452;28;20515;-52
2023/06/21 09:33:29;;;;;;;0.50;0.30;;;;;;;29.11;60.72;100325.13;5046451;28;20971;-51
2023/06/21 09:35:57;;;;;;;0.50;0.30;;;;;;;29.24;60.44;100334.78;5047008;28;20442;-52
2023/06/21 09:38:28;;;;;;;0.50;0.30;;;;;;;29.18;60.80;100328.91;5044930;28;20475;-51
2023/06/21 09:40:55;;;;;;;0.50;0.30;;;;;;;29.21;61.89;100325.00;5043968;28;20495;-52
2023/06/21 09:43:22;;;;;;;0.50;0.30;;;;;;;28.83;62.37;100332.59;5038891;28;20462;-51
2023/06/21 09:45:57;;;;;;;0.50;0.30;;;;;;;28.29;62.49;100334.56;5042462;28;20518;-52
2023/06/21 09:48:24;;;;;;;0.50;0.30;;;;;;;28.55;64.75;100348.28;5049481;28;20492;-51
2023/06/21 09:50:55;;;;;;;0.53;0.53;;;;;;;28.15;63.06;100346.00;5041835;28;20469;-51
2023/06/21 09:53:25;;;;;;;0.50;0.30;;;;;;;28.38;65.07;100348.31;5047492;28;20540;-51
2023/06/21 09:55:55;;;;;;;0.50;0.30;;;;;;;28.29;62.33;100359.16;5040337;28;20872;-52
2023/06/21 09:58:23;;;;;;;0.50;0.30;;;;;;;28.20;64.00;100360.06;5045273;28;20496;-51
2023/06/21 10:00:49;;;;;;;0.50;0.30;;;;;;;28.08;65.00;100352.25;5047399;28;20483;-52
2023/06/21 10:03:16;;;;;;;0.50;0.30;;;;;;;28.05;61.12;100356.16;5036208;28;20969;-52
2023/06/21 10:05:56;;;;;;;0.50;0.40;;;;;;;28.20;62.35;100359.19;5046098;28;20456;-52
2023/06/21 10:08:31;;;;;;;0.50;0.30;;;;;;;28.07;62.20;100356.00;5042501;28;20444;-52
2023/06/21 10:10:59;;;;;;;0.50;0.30;;;;;;;28.04;62.80;100344.34;5049118;28;20503;-52
2023/06/21 10:13:31;;;;;;;0.50;0.30;;;;;;;28.50;61.27;100345.16;5043799;28;20496;-52
2023/06/21 10:16:00;;;;;;;0.50;0.30;;;;;;;28.44;61.49;100343.06;5050422;28;20441;-52
2023/06/21 10:18:27;;;;;;;0.50;0.30;;;;;;;28.79;60.24;100350.38;5047320;28;20448;-52
2023/06/21 10:21:04;;;;;;;0.50;0.30;;;;;;;28.79;60.31;100344.91;5050199;28;20492;-52
2023/06/21 10:23:34;;;;;;;0.50;0.30;;;;;;;29.19;58.65;100349.81;5052479;28;20462;-52
2023/06/21 10:26:12;;;;;;;0.50;0.30;;;;;;;28.97;57.20;100344.03;5041699;28;20528;-52
2023/06/21 10:28:41;;;;;;;0.50;0.30;;;;;;;29.47;56.72;100341.44;5051372;28;20512;-52
2023/06/21 10:31:09;;;;;;;0.50;0.30;;;;;;;29.56;55.67;100342.31;5045071;28;20539;-52
2023/06/21 10:33:37;;;;;;;0.50;0.30;;;;;;;29.29;56.75;100337.88;5049959;28;21005;-52
2023/06/21 10:36:09;;;;;;;0.50;0.30;;;;;;;29.43;56.15;100340.00;5051435;28;20467;-52
2023/06/21 10:38:53;;;;;;;0.50;0.30;;;;;;;29.84;55.92;100348.41;5048549;28;20993;-53
2023/06/21 10:41:20;;;;;;;0.50;0.40;;;;;;;30.38;52.81;100347.00;5035604;28;20994;-52
2023/06/21 10:43:47;;;;;;;0.50;0.30;;;;;;;30.10;52.76;100338.22;5041854;28;20858;-52
2023/06/21 10:46:14;;;;;;;0.60;0.50;;;;;;;30.72;52.37;100338.63;5049740;28;20452;-52
2023/06/21 10:48:41;;;;;;;0.50;0.30;;;;;;;30.33;52.11;100339.28;5051555;28;20467;-52
2023/06/21 10:51:10;;;;;;;0.50;0.30;;;;;;;30.07;53.07;100335.81;5047654;28;20997;-52
2023/06/21 10:53:36;;;;;;;0.50;0.30;;;;;;;29.63;52.92;100348.84;5050316;28;20442;-52
2023/06/21 10:56:07;;;;;;;0.50;0.30;;;;;;;29.41;54.52;100342.91;5053414;28;20458;-52
2023/06/21 10:58:34;;;;;;;0.50;0.30;;;;;;;29.38;55.14;100342.38;5048740;28;20500;-52
2023/06/21 11:01:00;;;;;;;0.50;0.30;;;;;;;29.88;52.83;100338.81;5053302;28;20498;-52
2023/06/21 11:03:27;;;;;;;0.50;0.30;;;;;;;30.00;51.42;100340.22;5039846;28;20459;-52
2023/06/21 11:05:55;;;;;;;0.50;0.30;;;;;;;29.51;53.61;100337.34;5050603;28;20474;-52
2023/06/21 11:08:51;;;;;;;0.50;0.30;;;;;;;29.86;53.24;100338.97;5045233;28;20467;-52
2023/06/21 11:11:32;;;;;;;0.50;0.30;;;;;;;30.08;52.16;100338.38;5031581;28;20461;-52
2023/06/21 11:14:05;;;;;;;0.50;0.30;;;;;;;29.72;53.98;100334.13;5050823;28;20469;-52
2023/06/21 11:16:39;;;;;;;0.50;0.30;;;;;;;29.45;54.42;100338.78;5046457;28;20473;-52
2023/06/21 11:19:08;;;;;;;0.50;0.30;;;;;;;30.29;51.81;100342.53;5052582;28;21000;-52
2023/06/21 11:21:41;;;;;;;0.93;0.93;;;;;;;29.99;53.65;100341.25;5042641;28;20515;-52
2023/06/21 11:24:15;;;;;;;0.50;0.30;;;;;;;30.51;51.64;100341.00;5050944;28;20458;-52